sensor_id;sensor_type;location;lat;lon;timestamp;P1;durP1;ratioP1;P2;durP2;ratioP2
29402;SDS011;16382;59.942;30.472;2023-03-19T00:00:46;0.70;;;0.60;;
29402;SDS011;16382;59.942;30.472;2023-03-19T00:03:13;1.00;;;0.70;;
29402;SDS011;16382;59.942;30.472;2023-03-19T00:05:42;0.95;;;0.52;;
29402;SDS011;16382;59.942;30.472;2023-03-19T00:08:17;2.33;;;1.00;;
29402;SDS011;16382;59.942;30.472;2023-03-19T00:10:45;1.75;;;0.90;;
29402;SDS011;16382;59.942;30.472;2023-03-19T00:13:13;4.57;;;1.08;;
29402;SDS011;16382;59.942;30.472;2023-03-19T00:15:40;1.27;;;0.98;;
29402;SDS011;16382;59.942;30.472;2023-03-19T00:18:07;0.80;;;0.52;;
29402;SDS011;16382;59.942;30.472;2023-03-19T00:20:35;1.55;;;0.80;;
29402;SDS011;16382;59.942;30.472;2023-03-19T00:23:04;1.95;;;0.60;;
29402;SDS011;16382;59.942;30.472;2023-03-19T00:25:31;4.65;;;1.05;;
29402;SDS011;16382;59.942;30.472;2023-03-19T00:27:59;2.88;;;0.93;;
29402;SDS011;16382;59.942;30.472;2023-03-19T00:30:26;1.83;;;0.90;;
29402;SDS011;16382;59.942;30.472;2023-03-19T00:32:53;1.27;;;0.73;;
29402;SDS011;16382;59.942;30.472;2023-03-19T00:35:21;1.30;;;0.80;;
29402;SDS011;16382;59.942;30.472;2023-03-19T00:37:48;2.20;;;1.27;;
29402;SDS011;16382;59.942;30.472;2023-03-19T00:40:18;1.63;;;0.98;;
29402;SDS011;16382;59.942;30.472;2023-03-19T00:42:46;0.80;;;0.80;;
29402;SDS011;16382;59.942;30.472;2023-03-19T00:45:14;0.88;;;0.60;;
29402;SDS011;16382;59.942;30.472;2023-03-19T00:47:41;1.90;;;0.88;;
29402;SDS011;16382;59.942;30.472;2023-03-19T00:50:11;1.50;;;0.93;;
29402;SDS011;16382;59.942;30.472;2023-03-19T00:52:39;1.38;;;0.80;;
29402;SDS011;16382;59.942;30.472;2023-03-19T00:55:07;2.13;;;1.10;;
29402;SDS011;16382;59.942;30.472;2023-03-19T00:57:36;5.25;;;0.70;;
29402;SDS011;16382;59.942;30.472;2023-03-19T01:00:04;4.50;;;0.70;;
29402;SDS011;16382;59.942;30.472;2023-03-19T01:02:35;1.30;;;0.70;;
29402;SDS011;16382;59.942;30.472;2023-03-19T01:05:02;0.70;;;0.50;;
29402;SDS011;16382;59.942;30.472;2023-03-19T01:07:30;2.88;;;0.93;;
29402;SDS011;16382;59.942;30.472;2023-03-19T01:09:58;0.82;;;0.68;;
29402;SDS011;16382;59.942;30.472;2023-03-19T01:12:26;1.25;;;0.80;;
29402;SDS011;16382;59.942;30.472;2023-03-19T01:14:55;0.70;;;0.70;;
29402;SDS011;16382;59.942;30.472;2023-03-19T01:17:22;1.35;;;0.80;;
29402;SDS011;16382;59.942;30.472;2023-03-19T01:19:50;2.42;;;0.85;;
29402;SDS011;16382;59.942;30.472;2023-03-19T01:22:18;1.92;;;0.70;;
29402;SDS011;16382;59.942;30.472;2023-03-19T01:24:51;0.90;;;0.60;;
29402;SDS011;16382;59.942;30.472;2023-03-19T01:27:19;1.25;;;0.65;;
29402;SDS011;16382;59.942;30.472;2023-03-19T01:29:48;1.30;;;0.50;;
29402;SDS011;16382;59.942;30.472;2023-03-19T01:32:28;1.80;;;0.70;;
29402;SDS011;16382;59.942;30.472;2023-03-19T01:35:17;2.17;;;1.05;;
29402;SDS011;16382;59.942;30.472;2023-03-19T01:37:45;1.85;;;1.02;;
29402;SDS011;16382;59.942;30.472;2023-03-19T01:40:13;1.42;;;0.80;;
29402;SDS011;16382;59.942;30.472;2023-03-19T01:42:54;0.90;;;0.68;;
29402;SDS011;16382;59.942;30.472;2023-03-19T01:45:50;5.18;;;0.60;;
29402;SDS011;16382;59.942;30.472;2023-03-19T01:48:26;1.33;;;1.10;;
29402;SDS011;16382;59.942;30.472;2023-03-19T01:51:04;1.73;;;0.80;;
29402;SDS011;16382;59.942;30.472;2023-03-19T01:54:00;5.15;;;0.57;;
29402;SDS011;16382;59.942;30.472;2023-03-19T01:56:51;0.90;;;0.68;;
29402;SDS011;16382;59.942;30.472;2023-03-19T01:59:43;1.90;;;0.55;;
29402;SDS011;16382;59.942;30.472;2023-03-19T02:02:36;2.35;;;0.60;;
29402;SDS011;16382;59.942;30.472;2023-03-19T02:05:17;1.73;;;1.00;;
29402;SDS011;16382;59.942;30.472;2023-03-19T02:07:51;1.00;;;0.70;;
29402;SDS011;16382;59.942;30.472;2023-03-19T02:10:21;1.45;;;0.80;;
29402;SDS011;16382;59.942;30.472;2023-03-19T02:12:49;1.10;;;0.82;;
29402;SDS011;16382;59.942;30.472;2023-03-19T02:15:17;3.60;;;0.90;;
29402;SDS011;16382;59.942;30.472;2023-03-19T02:17:45;2.35;;;0.80;;
29402;SDS011;16382;59.942;30.472;2023-03-19T02:20:15;1.60;;;0.75;;
29402;SDS011;16382;59.942;30.472;2023-03-19T02:22:55;1.42;;;0.95;;
29402;SDS011;16382;59.942;30.472;2023-03-19T02:25:32;1.67;;;0.80;;
29402;SDS011;16382;59.942;30.472;2023-03-19T02:28:06;2.17;;;0.90;;
29402;SDS011;16382;59.942;30.472;2023-03-19T02:30:36;2.05;;;1.02;;
29402;SDS011;16382;59.942;30.472;2023-03-19T02:33:08;1.02;;;0.82;;
29402;SDS011;16382;59.942;30.472;2023-03-19T02:35:37;1.55;;;0.88;;
29402;SDS011;16382;59.942;30.472;2023-03-19T02:38:06;0.98;;;0.75;;
29402;SDS011;16382;59.942;30.472;2023-03-19T02:40:34;1.30;;;0.93;;
29402;SDS011;16382;59.942;30.472;2023-03-19T02:43:08;4.43;;;0.93;;
29402;SDS011;16382;59.942;30.472;2023-03-19T02:45:35;3.95;;;1.00;;
29402;SDS011;16382;59.942;30.472;2023-03-19T02:48:03;1.35;;;1.00;;
29402;SDS011;16382;59.942;30.472;2023-03-19T02:50:31;4.50;;;1.20;;
29402;SDS011;16382;59.942;30.472;2023-03-19T02:52:59;3.60;;;1.00;;
29402;SDS011;16382;59.942;30.472;2023-03-19T02:55:26;4.03;;;1.30;;
29402;SDS011;16382;59.942;30.472;2023-03-19T02:57:53;2.83;;;1.40;;
29402;SDS011;16382;59.942;30.472;2023-03-19T03:00:22;2.03;;;1.10;;
29402;SDS011;16382;59.942;30.472;2023-03-19T03:02:49;2.30;;;1.08;;
29402;SDS011;16382;59.942;30.472;2023-03-19T03:05:17;2.58;;;1.00;;
29402;SDS011;16382;59.942;30.472;2023-03-19T03:07:45;2.47;;;1.00;;
29402;SDS011;16382;59.942;30.472;2023-03-19T03:10:15;2.25;;;0.85;;
29402;SDS011;16382;59.942;30.472;2023-03-19T03:12:43;4.38;;;1.88;;
29402;SDS011;16382;59.942;30.472;2023-03-19T03:15:11;2.92;;;1.05;;
29402;SDS011;16382;59.942;30.472;2023-03-19T03:17:42;2.40;;;1.77;;
29402;SDS011;16382;59.942;30.472;2023-03-19T03:20:12;3.67;;;0.93;;
29402;SDS011;16382;59.942;30.472;2023-03-19T03:22:42;1.88;;;1.10;;
29402;SDS011;16382;59.942;30.472;2023-03-19T03:25:10;3.55;;;1.05;;
29402;SDS011;16382;59.942;30.472;2023-03-19T03:27:39;2.65;;;1.17;;
29402;SDS011;16382;59.942;30.472;2023-03-19T03:30:08;4.43;;;1.77;;
29402;SDS011;16382;59.942;30.472;2023-03-19T03:32:38;3.53;;;1.30;;
29402;SDS011;16382;59.942;30.472;2023-03-19T03:35:07;2.38;;;1.52;;
29402;SDS011;16382;59.942;30.472;2023-03-19T03:37:35;2.63;;;1.30;;
29402;SDS011;16382;59.942;30.472;2023-03-19T03:40:04;2.70;;;1.80;;
29402;SDS011;16382;59.942;30.472;2023-03-19T03:42:34;4.18;;;1.05;;
29402;SDS011;16382;59.942;30.472;2023-03-19T03:45:04;3.88;;;1.02;;
29402;SDS011;16382;59.942;30.472;2023-03-19T03:47:34;3.53;;;1.58;;
29402;SDS011;16382;59.942;30.472;2023-03-19T03:50:03;2.00;;;1.30;;
29402;SDS011;16382;59.942;30.472;2023-03-19T03:52:33;10.93;;;1.25;;
29402;SDS011;16382;59.942;30.472;2023-03-19T03:55:01;2.55;;;1.67;;
29402;SDS011;16382;59.942;30.472;2023-03-19T03:57:29;5.25;;;1.27;;
29402;SDS011;16382;59.942;30.472;2023-03-19T03:59:56;3.78;;;1.67;;
29402;SDS011;16382;59.942;30.472;2023-03-19T04:02:24;3.17;;;1.20;;
29402;SDS011;16382;59.942;30.472;2023-03-19T04:04:52;6.13;;;1.27;;
29402;SDS011;16382;59.942;30.472;2023-03-19T04:07:20;2.53;;;1.05;;
29402;SDS011;16382;59.942;30.472;2023-03-19T04:09:54;3.05;;;1.00;;
29402;SDS011;16382;59.942;30.472;2023-03-19T04:12:23;2.60;;;1.00;;
29402;SDS011;16382;59.942;30.472;2023-03-19T04:14:50;2.60;;;1.08;;
29402;SDS011;16382;59.942;30.472;2023-03-19T04:17:18;6.30;;;1.00;;
29402;SDS011;16382;59.942;30.472;2023-03-19T04:19:45;1.70;;;1.00;;
29402;SDS011;16382;59.942;30.472;2023-03-19T04:22:13;1.67;;;0.77;;
29402;SDS011;16382;59.942;30.472;2023-03-19T04:24:40;9.20;;;1.40;;
29402;SDS011;16382;59.942;30.472;2023-03-19T04:27:10;2.22;;;1.00;;
29402;SDS011;16382;59.942;30.472;2023-03-19T04:29:39;6.13;;;1.35;;
29402;SDS011;16382;59.942;30.472;2023-03-19T04:32:07;2.55;;;0.88;;
29402;SDS011;16382;59.942;30.472;2023-03-19T04:34:35;2.65;;;1.13;;
29402;SDS011;16382;59.942;30.472;2023-03-19T04:37:02;1.42;;;1.00;;
29402;SDS011;16382;59.942;30.472;2023-03-19T04:39:33;6.05;;;1.25;;
29402;SDS011;16382;59.942;30.472;2023-03-19T04:42:01;2.78;;;1.00;;
29402;SDS011;16382;59.942;30.472;2023-03-19T04:47:03;1.08;;;0.93;;
29402;SDS011;16382;59.942;30.472;2023-03-19T04:49:46;1.95;;;1.65;;
29402;SDS011;16382;59.942;30.472;2023-03-19T04:52:17;3.60;;;1.10;;
29402;SDS011;16382;59.942;30.472;2023-03-19T04:54:44;2.60;;;1.40;;
29402;SDS011;16382;59.942;30.472;2023-03-19T04:57:12;5.70;;;1.38;;
29402;SDS011;16382;59.942;30.472;2023-03-19T04:59:43;1.95;;;1.40;;
29402;SDS011;16382;59.942;30.472;2023-03-19T05:02:13;2.22;;;1.50;;
29402;SDS011;16382;59.942;30.472;2023-03-19T05:04:42;1.73;;;0.90;;
29402;SDS011;16382;59.942;30.472;2023-03-19T05:07:12;1.95;;;0.98;;
29402;SDS011;16382;59.942;30.472;2023-03-19T05:09:41;8.45;;;1.15;;
29402;SDS011;16382;59.942;30.472;2023-03-19T05:12:11;2.63;;;1.30;;
29402;SDS011;16382;59.942;30.472;2023-03-19T05:14:45;4.85;;;1.13;;
29402;SDS011;16382;59.942;30.472;2023-03-19T05:17:17;3.92;;;1.02;;
29402;SDS011;16382;59.942;30.472;2023-03-19T05:20:03;6.93;;;1.17;;
29402;SDS011;16382;59.942;30.472;2023-03-19T05:22:33;7.25;;;1.60;;
29402;SDS011;16382;59.942;30.472;2023-03-19T05:25:02;4.35;;;1.30;;
29402;SDS011;16382;59.942;30.472;2023-03-19T05:27:31;6.60;;;1.38;;
29402;SDS011;16382;59.942;30.472;2023-03-19T05:30:06;2.80;;;1.20;;
29402;SDS011;16382;59.942;30.472;2023-03-19T05:32:55;4.80;;;1.17;;
29402;SDS011;16382;59.942;30.472;2023-03-19T05:35:36;3.72;;;1.33;;
29402;SDS011;16382;59.942;30.472;2023-03-19T05:38:10;4.68;;;1.65;;
29402;SDS011;16382;59.942;30.472;2023-03-19T05:40:42;2.25;;;1.30;;
29402;SDS011;16382;59.942;30.472;2023-03-19T05:43:37;1.95;;;1.00;;
29402;SDS011;16382;59.942;30.472;2023-03-19T05:46:11;2.80;;;1.00;;
29402;SDS011;16382;59.942;30.472;2023-03-19T05:48:38;5.45;;;1.23;;
29402;SDS011;16382;59.942;30.472;2023-03-19T05:51:09;5.78;;;1.08;;
29402;SDS011;16382;59.942;30.472;2023-03-19T05:53:44;4.97;;;1.80;;
29402;SDS011;16382;59.942;30.472;2023-03-19T05:56:33;4.03;;;1.10;;
29402;SDS011;16382;59.942;30.472;2023-03-19T05:59:25;2.53;;;1.50;;
29402;SDS011;16382;59.942;30.472;2023-03-19T06:02:07;1.50;;;1.23;;
29402;SDS011;16382;59.942;30.472;2023-03-19T06:04:37;2.70;;;1.30;;
29402;SDS011;16382;59.942;30.472;2023-03-19T06:07:05;5.68;;;1.48;;
29402;SDS011;16382;59.942;30.472;2023-03-19T06:09:35;6.30;;;1.30;;
29402;SDS011;16382;59.942;30.472;2023-03-19T06:12:03;4.35;;;1.45;;
29402;SDS011;16382;59.942;30.472;2023-03-19T06:14:50;12.18;;;4.30;;
29402;SDS011;16382;59.942;30.472;2023-03-19T06:17:49;3.65;;;1.20;;
29402;SDS011;16382;59.942;30.472;2023-03-19T06:20:17;8.60;;;1.50;;
29402;SDS011;16382;59.942;30.472;2023-03-19T06:22:46;4.55;;;1.70;;
29402;SDS011;16382;59.942;30.472;2023-03-19T06:25:14;13.00;;;1.70;;
29402;SDS011;16382;59.942;30.472;2023-03-19T06:27:42;5.25;;;1.38;;
29402;SDS011;16382;59.942;30.472;2023-03-19T06:30:22;4.68;;;1.58;;
29402;SDS011;16382;59.942;30.472;2023-03-19T06:32:53;6.50;;;2.22;;
29402;SDS011;16382;59.942;30.472;2023-03-19T06:35:22;2.15;;;1.63;;
29402;SDS011;16382;59.942;30.472;2023-03-19T06:37:52;5.07;;;1.23;;
29402;SDS011;16382;59.942;30.472;2023-03-19T06:40:20;6.35;;;1.40;;
29402;SDS011;16382;59.942;30.472;2023-03-19T06:42:48;3.03;;;2.30;;
29402;SDS011;16382;59.942;30.472;2023-03-19T06:45:15;12.90;;;1.60;;
29402;SDS011;16382;59.942;30.472;2023-03-19T06:47:44;3.17;;;1.52;;
29402;SDS011;16382;59.942;30.472;2023-03-19T06:50:14;4.43;;;1.70;;
29402;SDS011;16382;59.942;30.472;2023-03-19T06:52:43;6.28;;;2.00;;
29402;SDS011;16382;59.942;30.472;2023-03-19T06:55:11;2.50;;;1.50;;
29402;SDS011;16382;59.942;30.472;2023-03-19T06:57:38;10.13;;;1.40;;
29402;SDS011;16382;59.942;30.472;2023-03-19T07:00:09;4.78;;;1.80;;
29402;SDS011;16382;59.942;30.472;2023-03-19T07:02:39;3.67;;;1.35;;
29402;SDS011;16382;59.942;30.472;2023-03-19T07:05:14;6.88;;;2.08;;
29402;SDS011;16382;59.942;30.472;2023-03-19T07:07:42;2.55;;;1.80;;
29402;SDS011;16382;59.942;30.472;2023-03-19T07:10:10;9.18;;;1.50;;
29402;SDS011;16382;59.942;30.472;2023-03-19T07:12:39;4.57;;;1.45;;
29402;SDS011;16382;59.942;30.472;2023-03-19T07:15:06;7.07;;;2.03;;
29402;SDS011;16382;59.942;30.472;2023-03-19T07:17:35;10.15;;;1.88;;
29402;SDS011;16382;59.942;30.472;2023-03-19T07:20:02;5.13;;;1.77;;
29402;SDS011;16382;59.942;30.472;2023-03-19T07:22:33;3.47;;;1.70;;
29402;SDS011;16382;59.942;30.472;2023-03-19T07:25:01;11.65;;;1.85;;
29402;SDS011;16382;59.942;30.472;2023-03-19T07:27:29;9.00;;;2.15;;
29402;SDS011;16382;59.942;30.472;2023-03-19T07:29:59;6.78;;;1.70;;
29402;SDS011;16382;59.942;30.472;2023-03-19T07:32:28;7.65;;;2.00;;
29402;SDS011;16382;59.942;30.472;2023-03-19T07:34:56;4.43;;;1.75;;
29402;SDS011;16382;59.942;30.472;2023-03-19T07:37:23;3.97;;;2.08;;
29402;SDS011;16382;59.942;30.472;2023-03-19T07:39:52;3.63;;;1.65;;
29402;SDS011;16382;59.942;30.472;2023-03-19T07:42:20;12.95;;;2.03;;
29402;SDS011;16382;59.942;30.472;2023-03-19T07:44:47;7.10;;;1.75;;
29402;SDS011;16382;59.942;30.472;2023-03-19T07:47:15;4.43;;;1.95;;
29402;SDS011;16382;59.942;30.472;2023-03-19T07:49:43;6.05;;;2.42;;
29402;SDS011;16382;59.942;30.472;2023-03-19T07:52:11;4.95;;;2.00;;
29402;SDS011;16382;59.942;30.472;2023-03-19T07:54:43;4.35;;;1.65;;
29402;SDS011;16382;59.942;30.472;2023-03-19T07:57:12;7.93;;;2.33;;
29402;SDS011;16382;59.942;30.472;2023-03-19T07:59:40;4.30;;;1.70;;
29402;SDS011;16382;59.942;30.472;2023-03-19T08:02:09;8.82;;;3.50;;
29402;SDS011;16382;59.942;30.472;2023-03-19T08:04:37;6.80;;;2.42;;
29402;SDS011;16382;59.942;30.472;2023-03-19T08:07:06;8.70;;;1.92;;
29402;SDS011;16382;59.942;30.472;2023-03-19T08:09:35;11.32;;;2.30;;
29402;SDS011;16382;59.942;30.472;2023-03-19T08:12:03;7.80;;;2.78;;
29402;SDS011;16382;59.942;30.472;2023-03-19T08:14:34;7.20;;;2.22;;
29402;SDS011;16382;59.942;30.472;2023-03-19T08:17:01;8.50;;;2.33;;
29402;SDS011;16382;59.942;30.472;2023-03-19T08:19:29;8.43;;;2.25;;
29402;SDS011;16382;59.942;30.472;2023-03-19T08:21:57;4.03;;;2.40;;
29402;SDS011;16382;59.942;30.472;2023-03-19T08:24:25;8.30;;;2.10;;
29402;SDS011;16382;59.942;30.472;2023-03-19T08:26:52;5.18;;;2.40;;
29402;SDS011;16382;59.942;30.472;2023-03-19T08:29:20;7.40;;;2.28;;
29402;SDS011;16382;59.942;30.472;2023-03-19T08:31:51;8.23;;;2.50;;
29402;SDS011;16382;59.942;30.472;2023-03-19T08:34:20;6.90;;;2.65;;
29402;SDS011;16382;59.942;30.472;2023-03-19T08:36:48;3.95;;;2.25;;
29402;SDS011;16382;59.942;30.472;2023-03-19T08:39:16;4.85;;;2.17;;
29402;SDS011;16382;59.942;30.472;2023-03-19T08:41:44;5.90;;;2.20;;
29402;SDS011;16382;59.942;30.472;2023-03-19T08:44:14;8.20;;;1.92;;
29402;SDS011;16382;59.942;30.472;2023-03-19T08:46:41;8.18;;;2.33;;
29402;SDS011;16382;59.942;30.472;2023-03-19T08:49:10;4.22;;;1.98;;
29402;SDS011;16382;59.942;30.472;2023-03-19T08:51:38;7.10;;;2.38;;
29402;SDS011;16382;59.942;30.472;2023-03-19T08:54:05;8.05;;;2.50;;
29402;SDS011;16382;59.942;30.472;2023-03-19T08:56:33;3.55;;;2.33;;
29402;SDS011;16382;59.942;30.472;2023-03-19T08:59:01;4.50;;;2.20;;
29402;SDS011;16382;59.942;30.472;2023-03-19T09:01:29;4.72;;;2.17;;
29402;SDS011;16382;59.942;30.472;2023-03-19T09:03:58;5.35;;;1.75;;
29402;SDS011;16382;59.942;30.472;2023-03-19T09:06:27;6.10;;;2.10;;
29402;SDS011;16382;59.942;30.472;2023-03-19T09:08:55;7.45;;;2.30;;
29402;SDS011;16382;59.942;30.472;2023-03-19T09:11:23;8.63;;;2.50;;
29402;SDS011;16382;59.942;30.472;2023-03-19T09:13:50;5.28;;;2.20;;
29402;SDS011;16382;59.942;30.472;2023-03-19T09:16:18;8.88;;;2.85;;
29402;SDS011;16382;59.942;30.472;2023-03-19T09:18:46;6.60;;;2.03;;
29402;SDS011;16382;59.942;30.472;2023-03-19T09:21:13;3.90;;;2.22;;
29402;SDS011;16382;59.942;30.472;2023-03-19T09:23:42;3.45;;;2.40;;
29402;SDS011;16382;59.942;30.472;2023-03-19T09:26:10;4.15;;;2.00;;
29402;SDS011;16382;59.942;30.472;2023-03-19T09:28:38;5.10;;;2.22;;
29402;SDS011;16382;59.942;30.472;2023-03-19T09:31:07;7.45;;;2.78;;
29402;SDS011;16382;59.942;30.472;2023-03-19T09:33:35;7.95;;;2.20;;
29402;SDS011;16382;59.942;30.472;2023-03-19T09:36:03;6.53;;;2.38;;
29402;SDS011;16382;59.942;30.472;2023-03-19T09:38:31;5.28;;;2.40;;
29402;SDS011;16382;59.942;30.472;2023-03-19T09:41:08;3.13;;;2.35;;
29402;SDS011;16382;59.942;30.472;2023-03-19T09:43:44;9.52;;;2.58;;
29402;SDS011;16382;59.942;30.472;2023-03-19T09:46:27;5.45;;;2.40;;
29402;SDS011;16382;59.942;30.472;2023-03-19T09:49:04;4.53;;;2.80;;
29402;SDS011;16382;59.942;30.472;2023-03-19T09:51:40;9.77;;;2.38;;
29402;SDS011;16382;59.942;30.472;2023-03-19T09:54:20;3.42;;;2.45;;
29402;SDS011;16382;59.942;30.472;2023-03-19T09:56:58;4.13;;;2.90;;
29402;SDS011;16382;59.942;30.472;2023-03-19T09:59:26;7.18;;;2.85;;
29402;SDS011;16382;59.942;30.472;2023-03-19T10:01:56;5.25;;;2.50;;
29402;SDS011;16382;59.942;30.472;2023-03-19T10:04:41;7.00;;;2.55;;
29402;SDS011;16382;59.942;30.472;2023-03-19T10:07:22;6.78;;;2.53;;
29402;SDS011;16382;59.942;30.472;2023-03-19T10:13:06;9.27;;;2.30;;
29402;SDS011;16382;59.942;30.472;2023-03-19T10:15:42;4.30;;;2.60;;
29402;SDS011;16382;59.942;30.472;2023-03-19T10:18:15;5.10;;;3.60;;
29402;SDS011;16382;59.942;30.472;2023-03-19T10:20:47;12.52;;;5.53;;
29402;SDS011;16382;59.942;30.472;2023-03-19T10:23:37;5.97;;;3.72;;
29402;SDS011;16382;59.942;30.472;2023-03-19T10:26:11;5.35;;;2.70;;
29402;SDS011;16382;59.942;30.472;2023-03-19T10:28:49;8.25;;;5.00;;
29402;SDS011;16382;59.942;30.472;2023-03-19T10:31:43;8.93;;;4.13;;
29402;SDS011;16382;59.942;30.472;2023-03-19T10:34:28;11.15;;;3.95;;
29402;SDS011;16382;59.942;30.472;2023-03-19T10:36:58;10.48;;;4.07;;
29402;SDS011;16382;59.942;30.472;2023-03-19T10:39:32;12.07;;;4.13;;
29402;SDS011;16382;59.942;30.472;2023-03-19T10:45:04;8.00;;;3.17;;
29402;SDS011;16382;59.942;30.472;2023-03-19T10:47:45;4.78;;;2.38;;
29402;SDS011;16382;59.942;30.472;2023-03-19T10:50:14;5.40;;;3.13;;
29402;SDS011;16382;59.942;30.472;2023-03-19T10:52:48;3.50;;;2.42;;
29402;SDS011;16382;59.942;30.472;2023-03-19T10:55:22;6.22;;;2.97;;
29402;SDS011;16382;59.942;30.472;2023-03-19T10:57:55;16.05;;;4.18;;
29402;SDS011;16382;59.942;30.472;2023-03-19T11:00:32;8.50;;;3.13;;
29402;SDS011;16382;59.942;30.472;2023-03-19T11:03:10;5.82;;;2.90;;
29402;SDS011;16382;59.942;30.472;2023-03-19T11:06:04;8.20;;;3.28;;
29402;SDS011;16382;59.942;30.472;2023-03-19T11:08:47;5.82;;;2.92;;
29402;SDS011;16382;59.942;30.472;2023-03-19T11:14:14;5.38;;;2.50;;
29402;SDS011;16382;59.942;30.472;2023-03-19T11:16:48;4.07;;;2.80;;
29402;SDS011;16382;59.942;30.472;2023-03-19T11:19:23;4.60;;;2.97;;
29402;SDS011;16382;59.942;30.472;2023-03-19T11:22:07;7.68;;;2.70;;
29402;SDS011;16382;59.942;30.472;2023-03-19T11:24:42;10.13;;;3.28;;
29402;SDS011;16382;59.942;30.472;2023-03-19T11:27:17;9.85;;;3.63;;
29402;SDS011;16382;59.942;30.472;2023-03-19T11:29:52;9.48;;;3.30;;
29402;SDS011;16382;59.942;30.472;2023-03-19T11:32:37;6.57;;;2.88;;
29402;SDS011;16382;59.942;30.472;2023-03-19T11:35:29;9.82;;;3.10;;
29402;SDS011;16382;59.942;30.472;2023-03-19T11:38:02;13.90;;;3.03;;
29402;SDS011;16382;59.942;30.472;2023-03-19T11:40:39;9.38;;;2.78;;
29402;SDS011;16382;59.942;30.472;2023-03-19T11:46:26;5.57;;;2.50;;
29402;SDS011;16382;59.942;30.472;2023-03-19T11:49:06;10.75;;;3.53;;
29402;SDS011;16382;59.942;30.472;2023-03-19T11:51:58;5.93;;;2.85;;
29402;SDS011;16382;59.942;30.472;2023-03-19T11:54:38;8.07;;;3.30;;
29402;SDS011;16382;59.942;30.472;2023-03-19T11:57:32;8.48;;;3.47;;
29402;SDS011;16382;59.942;30.472;2023-03-19T12:00:32;6.75;;;2.90;;
29402;SDS011;16382;59.942;30.472;2023-03-19T12:03:28;7.40;;;3.95;;
29402;SDS011;16382;59.942;30.472;2023-03-19T12:06:21;8.65;;;3.00;;
29402;SDS011;16382;59.942;30.472;2023-03-19T12:09:02;6.60;;;3.22;;
29402;SDS011;16382;59.942;30.472;2023-03-19T12:11:40;4.40;;;2.90;;
29402;SDS011;16382;59.942;30.472;2023-03-19T12:14:25;8.25;;;3.20;;
29402;SDS011;16382;59.942;30.472;2023-03-19T12:17:12;8.43;;;3.00;;
29402;SDS011;16382;59.942;30.472;2023-03-19T12:20:12;11.25;;;3.65;;
29402;SDS011;16382;59.942;30.472;2023-03-19T12:23:05;7.45;;;3.42;;
29402;SDS011;16382;59.942;30.472;2023-03-19T12:25:43;11.68;;;5.20;;
29402;SDS011;16382;59.942;30.472;2023-03-19T12:28:29;9.63;;;4.72;;
29402;SDS011;16382;59.942;30.472;2023-03-19T12:34:18;4.63;;;2.70;;
29402;SDS011;16382;59.942;30.472;2023-03-19T12:36:59;6.45;;;3.30;;
29402;SDS011;16382;59.942;30.472;2023-03-19T12:39:43;6.70;;;3.00;;
29402;SDS011;16382;59.942;30.472;2023-03-19T12:42:21;4.72;;;3.20;;
29402;SDS011;16382;59.942;30.472;2023-03-19T12:44:56;5.75;;;3.03;;
29402;SDS011;16382;59.942;30.472;2023-03-19T12:47:30;4.35;;;3.13;;
29402;SDS011;16382;59.942;30.472;2023-03-19T12:50:08;6.65;;;2.90;;
29402;SDS011;16382;59.942;30.472;2023-03-19T12:52:42;7.55;;;4.30;;
29402;SDS011;16382;59.942;30.472;2023-03-19T12:55:16;8.45;;;4.00;;
29402;SDS011;16382;59.942;30.472;2023-03-19T12:57:49;6.53;;;3.55;;
29402;SDS011;16382;59.942;30.472;2023-03-19T13:00:21;14.63;;;3.83;;
29402;SDS011;16382;59.942;30.472;2023-03-19T13:02:56;10.52;;;4.55;;
29402;SDS011;16382;59.942;30.472;2023-03-19T13:05:35;8.57;;;4.38;;
29402;SDS011;16382;59.942;30.472;2023-03-19T13:08:10;6.57;;;4.10;;
29402;SDS011;16382;59.942;30.472;2023-03-19T13:10:44;8.57;;;4.43;;
29402;SDS011;16382;59.942;30.472;2023-03-19T13:13:19;12.00;;;4.38;;
29402;SDS011;16382;59.942;30.472;2023-03-19T13:15:58;13.48;;;5.45;;
29402;SDS011;16382;59.942;30.472;2023-03-19T13:18:32;9.88;;;4.80;;
29402;SDS011;16382;59.942;30.472;2023-03-19T13:21:10;6.88;;;4.10;;
29402;SDS011;16382;59.942;30.472;2023-03-19T13:23:50;13.30;;;4.63;;
29402;SDS011;16382;59.942;30.472;2023-03-19T13:26:37;15.68;;;5.00;;
29402;SDS011;16382;59.942;30.472;2023-03-19T13:29:07;14.00;;;5.00;;
29402;SDS011;16382;59.942;30.472;2023-03-19T13:31:44;13.20;;;4.57;;
29402;SDS011;16382;59.942;30.472;2023-03-19T13:34:18;12.20;;;4.03;;
29402;SDS011;16382;59.942;30.472;2023-03-19T13:36:52;8.02;;;4.25;;
29402;SDS011;16382;59.942;30.472;2023-03-19T13:39:30;8.20;;;3.70;;
29402;SDS011;16382;59.942;30.472;2023-03-19T13:45:28;8.88;;;4.32;;
29402;SDS011;16382;59.942;30.472;2023-03-19T13:51:08;5.65;;;3.28;;
29402;SDS011;16382;59.942;30.472;2023-03-19T13:53:52;9.13;;;4.07;;
29402;SDS011;16382;59.942;30.472;2023-03-19T13:56:20;11.52;;;3.83;;
29402;SDS011;16382;59.942;30.472;2023-03-19T13:58:50;5.25;;;3.78;;
29402;SDS011;16382;59.942;30.472;2023-03-19T14:01:51;9.27;;;4.53;;
29402;SDS011;16382;59.942;30.472;2023-03-19T14:04:20;14.25;;;4.75;;
29402;SDS011;16382;59.942;30.472;2023-03-19T14:06:54;8.40;;;3.88;;
29402;SDS011;16382;59.942;30.472;2023-03-19T14:09:33;12.23;;;4.32;;
29402;SDS011;16382;59.942;30.472;2023-03-19T14:12:08;10.05;;;3.90;;
29402;SDS011;16382;59.942;30.472;2023-03-19T14:14:50;15.20;;;4.53;;
29402;SDS011;16382;59.942;30.472;2023-03-19T14:17:23;8.93;;;3.67;;
29402;SDS011;16382;59.942;30.472;2023-03-19T14:19:53;10.23;;;4.90;;
29402;SDS011;16382;59.942;30.472;2023-03-19T14:22:31;10.95;;;4.28;;
29402;SDS011;16382;59.942;30.472;2023-03-19T14:28:50;11.85;;;4.22;;
29402;SDS011;16382;59.942;30.472;2023-03-19T14:31:28;17.35;;;4.65;;
29402;SDS011;16382;59.942;30.472;2023-03-19T14:34:54;9.20;;;3.90;;
29402;SDS011;16382;59.942;30.472;2023-03-19T14:37:33;6.95;;;4.20;;
29402;SDS011;16382;59.942;30.472;2023-03-19T14:40:15;12.65;;;4.68;;
29402;SDS011;16382;59.942;30.472;2023-03-19T14:43:03;9.20;;;3.80;;
29402;SDS011;16382;59.942;30.472;2023-03-19T14:45:54;13.82;;;4.50;;
29402;SDS011;16382;59.942;30.472;2023-03-19T14:52:14;10.50;;;4.20;;
29402;SDS011;16382;59.942;30.472;2023-03-19T14:54:47;5.45;;;3.40;;
29402;SDS011;16382;59.942;30.472;2023-03-19T14:57:19;9.00;;;4.30;;
29402;SDS011;16382;59.942;30.472;2023-03-19T14:59:52;7.95;;;3.92;;
29402;SDS011;16382;59.942;30.472;2023-03-19T15:02:26;8.38;;;3.97;;
29402;SDS011;16382;59.942;30.472;2023-03-19T15:05:03;10.23;;;3.50;;
29402;SDS011;16382;59.942;30.472;2023-03-19T15:07:38;11.77;;;3.97;;
29402;SDS011;16382;59.942;30.472;2023-03-19T15:10:13;13.35;;;3.78;;
29402;SDS011;16382;59.942;30.472;2023-03-19T15:16:26;7.30;;;4.00;;
29402;SDS011;16382;59.942;30.472;2023-03-19T15:19:05;6.13;;;4.00;;
29402;SDS011;16382;59.942;30.472;2023-03-19T15:21:35;6.80;;;3.53;;
29402;SDS011;16382;59.942;30.472;2023-03-19T15:24:07;12.07;;;5.05;;
29402;SDS011;16382;59.942;30.472;2023-03-19T15:26:40;10.18;;;3.78;;
29402;SDS011;16382;59.942;30.472;2023-03-19T15:29:14;10.10;;;3.97;;
29402;SDS011;16382;59.942;30.472;2023-03-19T15:31:58;6.90;;;3.78;;
29402;SDS011;16382;59.942;30.472;2023-03-19T15:34:31;8.68;;;4.43;;
29402;SDS011;16382;59.942;30.472;2023-03-19T15:37:00;12.25;;;4.03;;
29402;SDS011;16382;59.942;30.472;2023-03-19T15:39:36;11.30;;;4.88;;
29402;SDS011;16382;59.942;30.472;2023-03-19T15:42:08;12.38;;;4.72;;
29402;SDS011;16382;59.942;30.472;2023-03-19T15:44:37;9.75;;;4.30;;